createdAt,value
2023-02-11T00:02:21.836Z,22.67
2023-02-11T00:04:49.800Z,23.50
2023-02-11T00:07:17.815Z,21.50
2023-02-11T00:09:45.824Z,21.47
2023-02-11T00:12:13.840Z,21.30
2023-02-11T00:14:41.841Z,34.73
2023-02-11T00:17:09.794Z,38.47
2023-02-11T00:19:40.127Z,122.03
2023-02-11T00:22:08.077Z,64.47
2023-02-11T00:24:36.986Z,46.20
2023-02-11T00:27:05.065Z,39.43
2023-02-11T00:29:33.111Z,43.17
2023-02-11T00:32:05.338Z,28.57
2023-02-11T00:34:33.464Z,25.77
2023-02-11T00:37:02.856Z,26.13
2023-02-11T00:39:30.906Z,44.77
2023-02-11T00:41:59.183Z,54.67
2023-02-11T00:44:27.102Z,27.53
2023-02-11T00:46:55.039Z,22.63
2023-02-11T00:49:22.948Z,21.77
2023-02-11T00:51:50.932Z,21.60
2023-02-11T00:54:20.326Z,23.83
2023-02-11T00:56:48.264Z,23.13
2023-02-11T00:59:16.222Z,20.00
2023-02-11T01:01:44.267Z,23.53
2023-02-11T01:04:12.291Z,23.00
2023-02-11T01:06:40.277Z,22.50
2023-02-11T01:09:08.202Z,22.63
2023-02-11T01:11:37.582Z,21.40
2023-02-11T01:14:05.617Z,23.47
2023-02-11T01:16:33.582Z,24.00
2023-02-11T01:19:01.578Z,23.13
2023-02-11T01:21:29.508Z,25.20
2023-02-11T01:23:57.447Z,23.77
2023-02-11T01:26:25.516Z,23.50
2023-02-11T01:28:55.285Z,24.17
2023-02-11T01:31:23.336Z,23.83
2023-02-11T01:33:51.385Z,23.50
2023-02-11T01:36:19.385Z,22.97
2023-02-11T01:38:47.327Z,22.07
2023-02-11T01:41:15.940Z,23.87
2023-02-11T01:43:45.252Z,23.33
2023-02-11T01:46:22.948Z,24.27
2023-02-11T01:48:54.365Z,23.53
2023-02-11T01:51:23.511Z,24.20
2023-02-11T01:54:09.749Z,21.40
2023-02-11T01:57:05.747Z,23.00
2023-02-11T01:59:35.848Z,22.90
2023-02-11T02:02:06.464Z,22.07
2023-02-11T02:04:39.834Z,24.23
2023-02-11T02:07:09.772Z,25.70
2023-02-11T02:09:39.475Z,24.53
2023-02-11T02:12:07.492Z,23.67
2023-02-11T02:14:39.022Z,26.20
2023-02-11T02:17:07.046Z,24.03
2023-02-11T02:19:50.353Z,25.90
2023-02-11T02:22:37.281Z,24.13
2023-02-11T02:25:15.503Z,24.40
2023-02-11T02:27:48.833Z,24.93
2023-02-11T02:30:31.572Z,25.23
2023-02-11T02:33:21.637Z,24.10
2023-02-11T02:35:55.017Z,26.63
2023-02-11T02:38:24.856Z,25.80
2023-02-11T02:40:55.050Z,25.17
2023-02-11T02:43:24.211Z,26.93
2023-02-11T02:45:52.483Z,26.07
2023-02-11T02:48:29.135Z,23.87
2023-02-11T02:51:03.358Z,25.17
2023-02-11T02:53:39.900Z,27.07
2023-02-11T02:56:09.984Z,24.73
2023-02-11T02:58:50.180Z,24.80
2023-02-11T03:01:22.868Z,25.83
2023-02-11T03:03:56.573Z,25.43
2023-02-11T03:06:29.895Z,25.67
2023-02-11T03:09:01.027Z,24.37
2023-02-11T03:11:30.258Z,26.73
2023-02-11T03:13:58.405Z,25.13
2023-02-11T03:16:27.529Z,25.23
2023-02-11T03:19:00.688Z,26.23
2023-02-11T03:21:29.055Z,24.47
2023-02-11T03:23:58.262Z,25.27
2023-02-11T03:26:27.620Z,25.33
2023-02-11T03:28:56.959Z,24.93
2023-02-11T03:31:28.747Z,23.30
2023-02-11T03:34:05.130Z,23.87
2023-02-11T03:36:41.212Z,23.63
2023-02-11T03:39:10.589Z,24.93
2023-02-11T03:41:39.101Z,26.10
2023-02-11T03:44:07.446Z,24.43
2023-02-11T03:46:38.859Z,23.97
2023-02-11T03:49:11.091Z,24.97
2023-02-11T03:51:39.459Z,24.07
2023-02-11T03:54:11.739Z,26.30
2023-02-11T03:56:43.480Z,23.87
2023-02-11T03:59:11.442Z,23.60
2023-02-11T04:01:39.440Z,23.70
2023-02-11T04:04:08.832Z,21.50
2023-02-11T04:06:36.823Z,22.47
2023-02-11T04:09:04.920Z,21.63
2023-02-11T04:11:32.869Z,23.63
2023-02-11T04:14:00.922Z,21.77
2023-02-11T04:16:30.293Z,23.10
2023-02-11T04:18:58.275Z,23.53
2023-02-11T04:21:27.692Z,23.50
2023-02-11T04:23:55.639Z,21.77
2023-02-11T04:26:23.690Z,22.43
2023-02-11T04:28:51.662Z,22.93
2023-02-11T04:31:19.773Z,22.80
2023-02-11T04:33:47.771Z,22.60
2023-02-11T04:36:15.742Z,22.60
2023-02-11T04:38:45.077Z,22.53
2023-02-11T04:41:13.067Z,22.13
2023-02-11T04:43:41.066Z,22.23
2023-02-11T04:46:09.054Z,21.97
2023-02-11T04:48:37.043Z,21.83
2023-02-11T04:51:05.357Z,20.83
2023-02-11T04:53:33.327Z,22.87
2023-02-11T04:56:02.674Z,20.40
2023-02-11T04:58:30.744Z,21.37
2023-02-11T05:01:06.170Z,22.90
2023-02-11T05:03:34.117Z,22.17
2023-02-11T05:06:02.149Z,22.77
2023-02-11T05:08:30.075Z,23.50
2023-02-11T05:10:58.140Z,22.83
2023-02-11T05:13:27.479Z,21.70
2023-02-11T05:15:56.058Z,23.20
2023-02-11T05:18:24.637Z,24.33
2023-02-11T05:20:52.590Z,23.73
2023-02-11T05:23:20.534Z,25.40
2023-02-11T05:25:48.644Z,24.63
2023-02-11T05:28:17.023Z,24.93
2023-02-11T05:30:46.408Z,24.60
2023-02-11T05:33:14.385Z,24.90
2023-02-11T05:35:42.404Z,23.13
2023-02-11T05:38:10.341Z,24.63
2023-02-11T05:40:38.557Z,25.40
2023-02-11T05:43:06.497Z,23.17
2023-02-11T05:45:35.863Z,24.50
2023-02-11T05:48:05.340Z,22.77
2023-02-11T05:50:33.260Z,23.80
2023-02-11T05:53:01.231Z,23.27
2023-02-11T05:55:29.334Z,23.80
2023-02-11T05:57:57.260Z,23.47
2023-02-11T06:00:25.446Z,22.40
2023-02-11T06:02:53.760Z,22.33
2023-02-11T06:05:23.136Z,21.60
2023-02-11T06:07:51.153Z,22.53
2023-02-11T06:10:19.167Z,23.27
2023-02-11T06:12:47.083Z,21.77
2023-02-11T06:15:15.037Z,21.20
2023-02-11T06:17:43.020Z,21.93
2023-02-11T06:20:11.460Z,21.50
2023-02-11T06:22:40.880Z,20.53
2023-02-11T06:25:08.949Z,22.60
2023-02-11T06:27:36.859Z,21.43
2023-02-11T06:30:05.019Z,23.53
2023-02-11T06:32:43.960Z,20.93
2023-02-11T06:35:13.387Z,22.00
2023-02-11T06:37:42.790Z,21.37
2023-02-11T06:40:11.141Z,23.63
2023-02-11T06:42:39.749Z,20.87
2023-02-11T06:45:09.182Z,20.77
2023-02-11T06:47:37.197Z,21.50
2023-02-11T06:50:05.995Z,21.87
2023-02-11T06:52:34.277Z,21.27
2023-02-11T06:55:03.986Z,21.57
2023-02-11T06:57:32.033Z,19.63
2023-02-11T07:00:00.023Z,19.50
2023-02-11T07:02:28.074Z,21.47
2023-02-11T07:04:56.047Z,23.03
2023-02-11T07:07:24.014Z,20.40
2023-02-11T07:09:51.949Z,22.30
2023-02-11T07:12:21.344Z,23.43
2023-02-11T07:14:49.396Z,23.83
2023-02-11T07:17:17.382Z,21.73
2023-02-11T07:19:45.313Z,22.00
2023-02-11T07:22:13.301Z,20.93
2023-02-11T07:24:41.355Z,21.93
2023-02-11T07:27:09.317Z,20.43
2023-02-11T07:29:38.741Z,23.10
2023-02-11T07:32:07.174Z,24.57
2023-02-11T07:34:35.313Z,23.40
2023-02-11T07:37:03.314Z,25.07
2023-02-11T07:39:31.346Z,23.70
2023-02-11T07:42:00.232Z,24.70
2023-02-11T07:44:28.347Z,23.93
2023-02-11T07:46:57.921Z,22.43
2023-02-11T07:49:26.003Z,25.10
2023-02-11T07:51:53.952Z,24.57
2023-02-11T07:54:22.198Z,22.50
2023-02-11T07:56:50.164Z,24.60
2023-02-11T07:59:18.205Z,25.83
2023-02-11T08:01:46.197Z,23.70
2023-02-11T08:04:15.610Z,26.67
2023-02-11T08:06:44.411Z,25.57
2023-02-11T08:09:16.775Z,25.23
2023-02-11T08:11:44.991Z,25.20
2023-02-11T08:14:13.457Z,25.00
2023-02-11T08:16:43.258Z,25.17
2023-02-11T08:19:13.160Z,27.37
2023-02-11T08:21:42.719Z,24.80
2023-02-11T08:24:11.073Z,26.17
2023-02-11T08:26:39.039Z,26.13
2023-02-11T08:29:08.752Z,25.53
2023-02-11T08:31:37.436Z,27.50
2023-02-11T08:34:05.790Z,26.17
2023-02-11T08:36:34.937Z,25.83
2023-02-11T08:39:18.034Z,25.13
2023-02-11T08:41:46.500Z,26.20
2023-02-11T08:44:14.693Z,26.23
2023-02-11T08:46:42.684Z,27.10
2023-02-11T08:49:10.783Z,25.90
2023-02-11T08:51:38.743Z,27.07
2023-02-11T08:54:10.133Z,27.93
2023-02-11T08:56:38.527Z,27.93
2023-02-11T08:59:06.589Z,29.50
2023-02-11T09:01:34.860Z,27.97
2023-02-11T09:04:02.879Z,30.60
2023-02-11T09:06:30.820Z,27.60
2023-02-11T09:08:59.033Z,29.40
2023-02-11T09:11:30.188Z,26.20
2023-02-11T09:13:58.139Z,27.53
2023-02-11T09:16:27.351Z,26.53
2023-02-11T09:18:57.228Z,28.30
2023-02-11T09:21:25.187Z,28.30
2023-02-11T09:23:53.240Z,29.03
2023-02-11T09:26:21.987Z,29.10
2023-02-11T09:28:52.039Z,28.93
2023-02-11T09:31:20.769Z,27.90
2023-02-11T09:33:50.321Z,27.47
2023-02-11T09:36:20.085Z,27.30
2023-02-11T09:38:48.072Z,28.33
2023-02-11T09:41:26.216Z,27.87
2023-02-11T09:43:57.431Z,29.33
2023-02-11T09:46:26.157Z,26.60
2023-02-11T09:48:56.069Z,26.30
2023-02-11T09:51:28.232Z,27.93
2023-02-11T09:54:00.959Z,28.83
2023-02-11T09:56:29.704Z,29.50
2023-02-11T09:58:59.215Z,29.77
2023-02-11T10:01:32.147Z,28.53
2023-02-11T10:04:04.300Z,29.33
2023-02-11T10:06:41.086Z,29.63
2023-02-11T10:09:23.878Z,27.63
2023-02-11T10:11:57.012Z,27.60
2023-02-11T10:14:32.844Z,27.57
2023-02-11T10:17:08.983Z,27.57
2023-02-11T10:19:43.095Z,26.40
2023-02-11T10:22:13.605Z,30.67
2023-02-11T10:24:42.716Z,27.10
2023-02-11T10:27:17.796Z,27.50
2023-02-11T10:29:49.235Z,27.37
2023-02-11T10:32:23.855Z,26.20
2023-02-11T10:34:52.316Z,26.77
2023-02-11T10:37:20.308Z,27.70
2023-02-11T10:39:48.278Z,28.00
2023-02-11T10:42:16.271Z,28.73
2023-02-11T10:44:49.384Z,25.27
2023-02-11T10:47:21.985Z,26.00
2023-02-11T10:49:50.229Z,26.57
2023-02-11T10:52:23.934Z,26.53
2023-02-11T10:54:59.352Z,25.73
2023-02-11T10:57:29.091Z,25.03
2023-02-11T10:59:59.515Z,24.87
2023-02-11T11:02:34.449Z,25.97
2023-02-11T11:05:04.419Z,25.63
2023-02-11T11:07:32.966Z,28.03
2023-02-11T11:10:03.715Z,26.07
2023-02-11T11:12:33.699Z,24.97
2023-02-11T11:15:03.059Z,25.30
2023-02-11T11:17:32.445Z,26.00
2023-02-11T11:20:15.140Z,25.30
2023-02-11T11:22:43.621Z,25.20
2023-02-11T11:25:22.410Z,25.37
2023-02-11T11:27:51.074Z,25.20
2023-02-11T11:30:19.323Z,25.40
2023-02-11T11:32:48.818Z,24.07
2023-02-11T11:35:24.605Z,23.87
2023-02-11T11:37:55.527Z,24.90
2023-02-11T11:40:25.068Z,25.47
2023-02-11T11:43:07.729Z,23.37
2023-02-11T11:45:35.779Z,25.10
2023-02-11T11:48:08.119Z,23.60
2023-02-11T11:50:37.020Z,22.17
2023-02-11T11:53:08.430Z,23.30
2023-02-11T11:55:39.410Z,22.97
2023-02-11T11:58:11.745Z,22.97
2023-02-11T12:00:44.729Z,21.60
2023-02-11T12:03:30.563Z,21.60
2023-02-11T12:06:09.172Z,22.83
2023-02-11T12:08:42.458Z,20.60
2023-02-11T12:11:13.622Z,20.50
2023-02-11T12:13:50.352Z,21.03
2023-02-11T12:16:22.735Z,20.90
2023-02-11T12:19:07.240Z,21.40
2023-02-11T12:21:40.398Z,21.23
2023-02-11T12:24:18.340Z,20.23
2023-02-11T12:26:48.901Z,21.33
2023-02-11T12:29:23.270Z,21.97
2023-02-11T12:31:59.725Z,21.83
2023-02-11T12:34:34.149Z,20.50
2023-02-11T12:37:08.175Z,20.97
2023-02-11T12:39:41.142Z,21.83
2023-02-11T12:42:44.074Z,20.27
2023-02-11T12:45:21.223Z,21.10
2023-02-11T12:47:55.883Z,20.67
2023-02-11T12:50:27.244Z,19.60
2023-02-11T12:53:01.750Z,20.87
2023-02-11T12:55:30.882Z,19.17
2023-02-11T12:57:59.753Z,21.07
2023-02-11T13:00:31.386Z,19.23
2023-02-11T13:03:01.977Z,18.17
2023-02-11T13:05:33.163Z,18.57
2023-02-11T13:08:04.873Z,19.33
2023-02-11T13:10:34.921Z,16.67
2023-02-11T13:13:19.081Z,18.23
2023-02-11T13:15:50.128Z,18.03
2023-02-11T13:18:26.568Z,18.13
2023-02-11T13:20:57.602Z,19.10
2023-02-11T13:23:31.691Z,17.20
2023-02-11T13:26:03.981Z,19.57
2023-02-11T13:28:37.891Z,17.97
2023-02-11T13:31:07.970Z,16.27
2023-02-11T13:33:37.082Z,16.23
2023-02-11T13:36:18.755Z,16.77
2023-02-11T13:38:56.055Z,16.70
2023-02-11T13:41:26.066Z,16.43
2023-02-11T13:44:01.686Z,16.40
2023-02-11T13:46:31.010Z,16.13
2023-02-11T13:48:59.784Z,16.47
2023-02-11T13:51:39.027Z,15.80
2023-02-11T13:54:09.066Z,15.30
2023-02-11T13:56:38.126Z,16.80
2023-02-11T13:59:07.147Z,16.43
2023-02-11T14:01:42.876Z,14.60
2023-02-11T14:04:39.156Z,14.70
2023-02-11T14:07:42.179Z,15.70
2023-02-11T14:10:36.213Z,15.93
2023-02-11T14:13:08.179Z,16.80
2023-02-11T14:15:42.465Z,17.00
2023-02-11T14:18:28.784Z,16.80
2023-02-11T14:21:09.181Z,16.13
2023-02-11T14:23:37.653Z,16.10
2023-02-11T14:26:14.659Z,17.47
2023-02-11T14:28:46.928Z,15.30
2023-02-11T14:31:17.352Z,15.00
2023-02-11T14:33:53.822Z,17.60
2023-02-11T14:36:31.140Z,16.60
2023-02-11T14:39:03.713Z,16.57
2023-02-11T14:41:36.577Z,16.30
2023-02-11T14:44:05.911Z,17.50
2023-02-11T14:46:34.675Z,15.63
2023-02-11T14:49:03.854Z,18.13
2023-02-11T14:51:33.297Z,17.17
2023-02-11T14:54:04.515Z,16.47
2023-02-11T14:56:34.619Z,17.83
2023-02-11T14:59:03.133Z,16.97
2023-02-11T15:01:32.715Z,17.10
2023-02-11T15:04:01.433Z,18.13
2023-02-11T15:06:30.734Z,16.70
2023-02-11T15:09:01.096Z,16.87
2023-02-11T15:11:30.156Z,17.60
2023-02-11T15:14:01.188Z,17.67
2023-02-11T15:16:30.138Z,19.33
2023-02-11T15:18:59.521Z,17.70
2023-02-11T15:21:30.081Z,19.23
2023-02-11T15:23:59.554Z,17.87
2023-02-11T15:26:27.522Z,17.87
2023-02-11T15:28:56.271Z,17.77
2023-02-11T15:31:26.756Z,16.87
2023-02-11T15:33:55.337Z,16.40
2023-02-11T15:36:28.805Z,16.17
2023-02-11T15:39:15.296Z,16.93
2023-02-11T15:41:44.525Z,16.93
2023-02-11T15:44:27.216Z,15.60
2023-02-11T15:46:56.653Z,16.73
2023-02-11T15:49:25.234Z,15.67
2023-02-11T15:51:53.549Z,16.40
2023-02-11T15:54:22.964Z,15.53
2023-02-11T15:56:52.088Z,16.33
2023-02-11T15:59:24.036Z,15.13
2023-02-11T16:01:52.050Z,16.37
2023-02-11T16:04:22.542Z,16.57
2023-02-11T16:06:51.433Z,15.77
2023-02-11T16:09:24.718Z,16.87
2023-02-11T16:11:56.785Z,16.73
2023-02-11T16:14:29.615Z,16.20
2023-02-11T16:16:58.965Z,16.00
2023-02-11T16:19:30.417Z,15.93
2023-02-11T16:21:59.572Z,17.17
2023-02-11T16:24:29.244Z,16.60
2023-02-11T16:26:58.928Z,17.50
2023-02-11T16:29:28.771Z,17.40
2023-02-11T16:32:08.476Z,17.33
2023-02-11T16:34:37.964Z,17.00
2023-02-11T16:37:06.359Z,17.30
2023-02-11T16:39:37.100Z,17.67
2023-02-11T16:42:07.414Z,16.23
2023-02-11T16:44:36.100Z,18.37
2023-02-11T16:47:04.802Z,17.83
2023-02-11T16:49:34.052Z,17.27
2023-02-11T16:52:03.648Z,18.30
2023-02-11T16:54:31.560Z,18.20
2023-02-11T16:56:59.625Z,18.87
2023-02-11T16:59:27.513Z,17.67
2023-02-11T17:01:56.105Z,17.37
2023-02-11T17:04:26.052Z,18.70
2023-02-11T17:06:55.965Z,18.50
2023-02-11T17:09:30.249Z,18.37
2023-02-11T17:12:00.906Z,18.20
2023-02-11T17:14:31.459Z,18.07
2023-02-11T17:16:59.467Z,17.87
2023-02-11T17:19:30.444Z,19.37
2023-02-11T17:21:58.398Z,19.90
2023-02-11T17:24:27.824Z,19.63
2023-02-11T17:26:56.043Z,21.13
2023-02-11T17:29:24.774Z,19.70
2023-02-11T17:31:53.369Z,18.80
2023-02-11T17:34:21.992Z,18.60
2023-02-11T17:36:50.319Z,19.30
2023-02-11T17:39:19.367Z,19.23
2023-02-11T17:41:48.755Z,19.53
2023-02-11T17:44:16.816Z,19.63
2023-02-11T17:46:44.898Z,19.93
2023-02-11T17:49:13.060Z,19.53
2023-02-11T17:51:41.413Z,20.27
2023-02-11T17:54:10.231Z,20.33
2023-02-11T17:56:38.573Z,20.20
2023-02-11T17:59:08.542Z,20.50
2023-02-11T18:01:37.264Z,19.70
2023-02-11T18:04:05.683Z,20.07
2023-02-11T18:06:34.032Z,19.40
2023-02-11T18:09:04.461Z,19.33
2023-02-11T18:11:33.332Z,19.20
2023-02-11T18:14:01.382Z,21.20
2023-02-11T18:16:30.894Z,19.57
2023-02-11T18:18:59.401Z,19.47
2023-02-11T18:21:28.415Z,20.40
2023-02-11T18:23:57.110Z,20.80
2023-02-11T18:26:26.499Z,20.90
2023-02-11T18:28:54.467Z,20.30
2023-02-11T18:31:22.873Z,20.33
2023-02-11T18:33:53.231Z,20.73
2023-02-11T18:36:21.627Z,20.97
2023-02-11T18:38:49.644Z,21.53
2023-02-11T18:41:17.664Z,21.97
2023-02-11T18:43:45.844Z,21.17
2023-02-11T18:46:14.562Z,21.73
2023-02-11T18:48:44.906Z,20.33
2023-02-11T18:51:15.093Z,20.83
2023-02-11T18:53:43.465Z,20.90
2023-02-11T18:56:12.628Z,20.67
2023-02-11T18:58:40.691Z,20.93
2023-02-11T19:01:13.001Z,20.23
2023-02-11T19:03:40.975Z,21.83
2023-02-11T19:06:09.593Z,21.40
2023-02-11T19:08:38.976Z,22.07
2023-02-11T19:11:07.092Z,23.43
2023-02-11T19:13:35.070Z,23.03
2023-02-11T19:16:05.857Z,22.27
2023-02-11T19:18:33.817Z,21.57
2023-02-11T19:21:01.770Z,21.97
2023-02-11T19:23:29.706Z,21.17
2023-02-11T19:25:59.217Z,21.67
2023-02-11T19:28:27.220Z,22.13
2023-02-11T19:30:55.349Z,22.00
2023-02-11T19:33:23.606Z,23.57
2023-02-11T19:35:51.833Z,22.40
2023-02-11T19:38:19.935Z,23.33
2023-02-11T19:40:48.337Z,24.37
2023-02-11T19:43:17.673Z,25.43
2023-02-11T19:45:45.612Z,24.03
2023-02-11T19:48:14.109Z,24.90
2023-02-11T19:50:42.036Z,26.33
2023-02-11T19:53:10.008Z,26.37
2023-02-11T19:55:38.037Z,23.83
2023-02-11T19:58:06.154Z,25.63
2023-02-11T20:00:35.670Z,26.47
2023-02-11T20:03:03.671Z,24.20
2023-02-11T20:05:32.000Z,25.83
2023-02-11T20:08:00.202Z,25.13
2023-02-11T20:10:28.190Z,24.43
2023-02-11T20:12:56.110Z,24.13
2023-02-11T20:15:24.065Z,24.17
2023-02-11T20:17:53.375Z,24.70
2023-02-11T20:20:21.402Z,23.40
2023-02-11T20:22:49.428Z,24.13
2023-02-11T20:25:17.766Z,24.93
2023-02-11T20:27:45.734Z,24.00
2023-02-11T20:30:14.548Z,25.97
2023-02-11T20:32:42.598Z,24.17
2023-02-11T20:35:12.066Z,24.93
2023-02-11T20:37:42.940Z,27.07
2023-02-11T20:40:12.385Z,22.90
2023-02-11T20:42:40.418Z,23.77
2023-02-11T20:45:08.710Z,26.07
2023-02-11T20:47:38.364Z,25.73
2023-02-11T20:50:07.062Z,28.83
2023-02-11T20:52:37.055Z,25.97
2023-02-11T20:55:05.143Z,25.87
2023-02-11T20:57:35.356Z,24.70
2023-02-11T21:00:03.384Z,26.20
2023-02-11T21:02:31.481Z,25.03
2023-02-11T21:04:59.385Z,26.17
2023-02-11T21:07:29.345Z,24.13
2023-02-11T21:09:58.779Z,24.23
2023-02-11T21:12:26.683Z,22.83
2023-02-11T21:14:55.069Z,22.27
2023-02-11T21:17:23.099Z,23.93
2023-02-11T21:19:53.728Z,23.87
2023-02-11T21:22:21.698Z,23.90
2023-02-11T21:24:49.712Z,23.83
2023-02-11T21:27:19.044Z,24.17
2023-02-11T21:29:54.127Z,22.80
2023-02-11T21:32:22.731Z,25.07
2023-02-11T21:34:50.700Z,23.73
2023-02-11T21:37:18.655Z,24.60
2023-02-11T21:39:46.631Z,26.03
2023-02-11T21:42:14.640Z,24.77
2023-02-11T21:44:43.974Z,24.07
2023-02-11T21:47:11.924Z,25.13
2023-02-11T21:49:39.874Z,24.03
2023-02-11T21:52:07.965Z,24.13
2023-02-11T21:54:35.929Z,23.13
2023-02-11T21:57:04.264Z,25.37
2023-02-11T21:59:33.057Z,26.07
2023-02-11T22:02:02.406Z,25.23
2023-02-11T22:04:30.960Z,25.80
2023-02-11T22:06:58.979Z,25.50
2023-02-11T22:09:27.103Z,80.23
2023-02-11T22:11:55.198Z,56.70
2023-02-11T22:14:23.168Z,30.37
2023-02-11T22:16:51.325Z,26.77
2023-02-11T22:19:20.757Z,25.77
2023-02-11T22:21:48.663Z,25.97
2023-02-11T22:24:16.619Z,25.03
2023-02-11T22:26:44.602Z,26.33
2023-02-11T22:29:12.976Z,25.97
2023-02-11T22:31:41.112Z,26.23
2023-02-11T22:34:09.147Z,26.03
2023-02-11T22:36:39.706Z,25.57
2023-02-11T22:39:08.731Z,27.50
2023-02-11T22:41:38.353Z,25.20
2023-02-11T22:44:06.593Z,25.37
2023-02-11T22:46:34.572Z,26.20
2023-02-11T22:49:02.570Z,26.60
2023-02-11T22:51:30.872Z,25.40
2023-02-11T22:54:00.952Z,25.97
2023-02-11T22:56:29.673Z,24.33
2023-02-11T22:58:58.397Z,24.30
2023-02-11T23:01:26.530Z,24.40
2023-02-11T23:03:54.507Z,24.80
2023-02-11T23:06:22.662Z,24.63
2023-02-11T23:08:50.603Z,25.47
2023-02-11T23:11:20.954Z,25.20
2023-02-11T23:13:49.437Z,26.57
2023-02-11T23:16:19.492Z,26.47
2023-02-11T23:18:48.310Z,26.40
2023-02-11T23:21:17.850Z,27.73
2023-02-11T23:23:46.055Z,26.83
2023-02-11T23:26:14.648Z,26.97
2023-02-11T23:28:46.097Z,28.03
2023-02-11T23:31:15.543Z,26.97
2023-02-11T23:33:43.548Z,25.77
2023-02-11T23:36:11.569Z,28.13
2023-02-11T23:38:39.636Z,25.97
2023-02-11T23:41:07.548Z,28.63
2023-02-11T23:43:35.457Z,27.43
2023-02-11T23:46:04.998Z,27.47
2023-02-11T23:48:33.934Z,26.47
2023-02-11T23:51:01.931Z,27.17
2023-02-11T23:53:29.854Z,28.57
2023-02-11T23:55:57.836Z,26.57
2023-02-11T23:58:26.010Z,27.03
